Terminal Aerodrome Forecast
Issued by NWS

Home | Current Version | Previous Version | Text Only | Print | Product List | Glossary Off
Versions: 1 2 3 4 5 6 7 8 9 10 11 12 13 14 15 16 17 18 19 20 21 22 23

000
FTUS43 KGRB 272314 AAC
TAFATW
TAF AMD
KATW 272314Z 2723/2818 09004KT 3SM -SHRA BR OVC004
     FM280900 26003KT 1 1/2SM BR BKN008
      TEMPO 2809/2813 1/2SM FG VV001
     FM281400 29004KT P6SM SCT040=

USA.gov is the U.S. government's official web portal to all federal, state and local government web resources and services.